Time;durP1;ratioP1;P1;durP2;ratioP2;P2;SDS_P1;SDS_P2;PMS_P1;PMS_P2;Temp;Humidity;BMP_temperature;BMP_pressure;BME280_temperature;BME280_humidity;BME280_pressure;Samples;Min_cycle;Max_cycle;Signal;HPM_P1;HPM_P2
2021/06/12 00:02:45;;;;;;;7.58;6.35;;;;;;;15.13;98.40;99579.17;1754779;81;21311;-77
2021/06/12 00:05:51;;;;;;;13.10;7.25;;;;;;;15.14;99.04;99579.47;1754487;81;21216;-78
2021/06/12 00:08:57;;;;;;;9.68;5.55;;;;;;;15.09;99.07;99576.02;1755143;81;21322;-77
2021/06/12 00:12:02;;;;;;;18.57;6.70;;;;;;;15.10;99.87;99576.31;1756071;81;21711;-77
2021/06/12 00:15:08;;;;;;;12.40;6.87;;;;;;;15.14;100.00;99571.21;1756040;81;21304;-77
2021/06/12 00:18:13;;;;;;;10.55;6.80;;;;;;;15.20;100.00;99574.47;1755769;81;21326;-77
2021/06/12 00:21:19;;;;;;;13.58;6.30;;;;;;;15.26;100.00;99569.43;1754648;81;21254;-77
2021/06/12 00:24:24;;;;;;;8.45;5.47;;;;;;;15.30;100.00;99567.91;1756169;81;21240;-77
2021/06/12 00:27:30;;;;;;;11.90;5.25;;;;;;;15.31;100.00;99566.84;1756022;81;21830;-77
2021/06/12 00:30:36;;;;;;;15.00;6.33;;;;;;;15.31;100.00;99566.84;1755919;81;21303;-77
2021/06/12 00:33:42;;;;;;;11.25;6.70;;;;;;;15.26;100.00;99573.56;1756035;81;21319;-77
2021/06/12 00:36:49;;;;;;;9.25;7.05;;;;;;;15.26;100.00;99567.52;1754620;81;21255;-77
2021/06/12 00:39:55;;;;;;;17.62;7.72;;;;;;;15.31;100.00;99570.44;1754598;81;21378;-76
2021/06/12 00:43:01;;;;;;;9.63;7.28;;;;;;;15.39;100.00;99574.83;1754722;81;21299;-77
2021/06/12 00:46:06;;;;;;;11.75;7.62;;;;;;;15.43;100.00;99567.80;1754619;81;21292;-77
2021/06/12 00:49:12;;;;;;;11.10;8.03;;;;;;;15.48;100.00;99567.97;1754657;81;21287;-77
2021/06/12 00:52:18;;;;;;;9.83;6.10;;;;;;;15.52;100.00;99571.93;1756165;79;21378;-77
2021/06/12 00:55:24;;;;;;;9.58;6.50;;;;;;;15.54;100.00;99563.45;1756022;81;21291;-76
2021/06/12 00:58:29;;;;;;;5.95;4.60;;;;;;;15.53;100.00;99563.99;1755860;81;21232;-77
2021/06/12 01:01:35;;;;;;;11.83;6.87;;;;;;;15.55;100.00;99562.38;1755995;81;21735;-77
2021/06/12 01:04:40;;;;;;;6.83;5.75;;;;;;;15.55;99.63;99567.89;1755985;81;21303;-77
2021/06/12 01:07:45;;;;;;;11.43;6.97;;;;;;;15.54;99.58;99571.19;1755971;81;21323;-77
2021/06/12 01:10:52;;;;;;;11.50;6.10;;;;;;;15.54;99.41;99572.56;1754560;81;21185;-77
2021/06/12 01:14:21;;;;;;;9.53;6.28;;;;;;;15.55;99.41;99567.35;1756015;81;21291;-76
2021/06/12 01:17:42;;;;;;;9.18;6.65;;;;;;;15.54;99.03;99568.43;1756330;81;21169;-77
2021/06/12 01:21:11;;;;;;;14.58;8.63;;;;;;;15.52;98.78;99567.80;1755622;81;21326;-77
2021/06/12 01:24:32;;;;;;;14.13;7.58;;;;;;;15.49;98.90;99560.00;1756224;81;21173;-77
2021/06/12 01:27:58;;;;;;;15.28;8.55;;;;;;;15.53;99.54;99559.02;1756123;81;21342;-77
2021/06/12 01:31:02;;;;;;;17.65;9.85;;;;;;;15.56;99.51;99558.01;1755993;81;21291;-77
2021/06/12 01:34:08;;;;;;;15.32;9.88;;;;;;;15.63;100.00;99555.20;1756088;81;21821;-77
2021/06/12 01:37:16;;;;;;;12.68;7.67;;;;;;;15.68;100.00;99558.15;1755650;81;21331;-76
2021/06/12 01:40:21;;;;;;;10.23;7.08;;;;;;;15.71;100.00;99559.59;1755139;81;21330;-77
2021/06/12 01:43:27;;;;;;;11.83;7.60;;;;;;;15.73;100.00;99559.69;1756225;81;21298;-77
2021/06/12 01:46:34;;;;;;;17.15;10.18;;;;;;;15.73;99.19;99556.92;1756150;81;21466;-77
2021/06/12 01:49:39;;;;;;;17.35;10.30;;;;;;;15.70;98.87;99560.67;1755630;81;21188;-77
2021/06/12 01:52:46;;;;;;;21.75;11.28;;;;;;;15.72;99.40;99566.81;1754731;81;21837;-76
2021/06/12 01:55:51;;;;;;;14.30;10.40;;;;;;;15.81;99.79;99569.59;1754704;81;21188;-77
2021/06/12 01:58:58;;;;;;;21.00;10.82;;;;;;;15.99;100.00;99571.48;1754551;81;21746;-77
2021/06/12 02:02:06;;;;;;;15.58;10.72;;;;;;;16.24;100.00;99564.53;1756107;81;21295;-77
2021/06/12 02:05:13;;;;;;;16.62;9.13;;;;;;;16.48;99.73;99573.23;1756537;81;21311;-77
2021/06/12 02:08:18;;;;;;;18.32;9.88;;;;;;;16.67;98.57;99570.44;1756111;81;21731;-76
2021/06/12 02:11:25;;;;;;;10.65;8.70;;;;;;;16.86;97.65;99575.69;1755246;81;21196;-76
2021/06/12 02:14:31;;;;;;;13.38;9.28;;;;;;;17.08;96.38;99569.64;1756216;81;21339;-77
2021/06/12 02:17:37;;;;;;;17.57;9.08;;;;;;;17.30;95.15;99569.91;1756193;81;21307;-77
2021/06/12 02:20:44;;;;;;;16.93;10.05;;;;;;;17.50;94.15;99566.28;1755258;81;21377;-77
2021/06/12 02:23:50;;;;;;;15.78;10.58;;;;;;;17.58;92.58;99574.73;1756371;81;21202;-77
2021/06/12 02:26:56;;;;;;;15.10;10.50;;;;;;;17.59;91.67;99578.63;1756167;81;21326;-77
2021/06/12 02:30:02;;;;;;;14.95;9.90;;;;;;;17.54;90.89;99579.06;1755112;80;21366;-77
2021/06/12 02:33:12;;;;;;;14.55;9.60;;;;;;;17.41;90.50;99584.30;1756176;81;21307;-77
2021/06/12 02:36:19;;;;;;;14.47;10.10;;;;;;;17.30;90.86;99590.09;1754602;81;22351;-77
2021/06/12 02:39:26;;;;;;;15.63;9.80;;;;;;;17.25;91.27;99590.50;1756392;81;21774;-77
2021/06/12 02:42:34;;;;;;;17.30;10.08;;;;;;;17.24;91.84;99590.20;1756089;81;21351;-77
2021/06/12 02:45:40;;;;;;;13.15;9.63;;;;;;;17.26;91.93;99596.33;1756057;81;21881;-77
2021/06/12 02:48:46;;;;;;;17.42;9.78;;;;;;;17.33;92.02;99598.46;1754603;81;21296;-77
2021/06/12 02:51:58;;;;;;;15.75;9.75;;;;;;;17.35;91.79;99593.52;1754811;81;21180;-77
2021/06/12 02:55:06;;;;;;;14.53;9.75;;;;;;;17.39;91.71;99594.73;1749829;81;21250;-76
2021/06/12 02:58:13;;;;;;;20.97;9.55;;;;;;;17.50;91.82;99595.82;1727838;83;21307;-77
2021/06/12 03:01:19;;;;;;;21.35;9.38;;;;;;;17.73;91.87;99595.00;1728408;83;21323;-77
2021/06/12 03:04:24;;;;;;;11.88;9.18;;;;;;;18.07;91.15;99594.73;1749332;82;21224;-77
2021/06/12 03:07:30;;;;;;;12.30;9.05;;;;;;;18.33;89.32;99593.34;1748859;82;21921;-77
2021/06/12 03:10:37;;;;;;;15.80;8.40;;;;;;;18.48;88.21;99603.34;1748820;82;21843;-77
2021/06/12 03:13:44;;;;;;;14.53;7.45;;;;;;;18.59;87.37;99603.03;1750646;82;21307;-77
2021/06/12 03:16:50;;;;;;;13.43;8.45;;;;;;;18.64;86.39;99608.67;1749137;82;21839;-76
2021/06/12 03:19:55;;;;;;;17.17;7.72;;;;;;;18.69;85.91;99614.90;1749120;82;21347;-77
2021/06/12 03:23:02;;;;;;;14.00;7.42;;;;;;;18.74;85.52;99617.22;1748163;82;21347;-77
2021/06/12 03:26:07;;;;;;;10.53;7.35;;;;;;;18.81;85.03;99626.21;1749184;82;21173;-77
2021/06/12 03:29:13;;;;;;;8.53;5.95;;;;;;;18.90;84.63;99618.34;1748476;80;21244;-77
2021/06/12 03:32:18;;;;;;;8.23;5.80;;;;;;;19.00;83.19;99621.31;1747987;82;21367;-77
2021/06/12 03:35:23;;;;;;;6.37;5.58;;;;;;;19.00;82.13;99625.47;1749148;82;21240;-78
2021/06/12 03:38:28;;;;;;;6.92;5.10;;;;;;;18.97;81.39;99621.83;1748517;82;21643;-77
2021/06/12 03:41:35;;;;;;;8.18;6.08;;;;;;;18.98;81.19;99631.81;1748525;82;21208;-77
2021/06/12 03:44:41;;;;;;;9.83;5.12;;;;;;;18.96;80.80;99634.52;1749071;82;21319;-77
2021/06/12 03:47:47;;;;;;;7.92;5.87;;;;;;;18.89;80.59;99638.84;1749184;82;21331;-78
2021/06/12 03:50:53;;;;;;;8.08;6.05;;;;;;;18.81;80.75;99639.22;1749166;82;21315;-78
2021/06/12 03:53:57;;;;;;;7.45;5.12;;;;;;;18.74;81.18;99644.92;1730367;82;21330;-78
2021/06/12 03:57:03;;;;;;;8.00;5.20;;;;;;;18.77;81.60;99644.95;1704618;84;21868;-78
2021/06/12 04:00:14;;;;;;;6.95;5.10;;;;;;;19.00;81.52;99645.41;1724814;83;21188;-78
2021/06/12 04:03:20;;;;;;;7.80;4.47;;;;;;;19.41;80.93;99641.47;1696874;84;21306;-78
2021/06/12 04:06:26;;;;;;;8.78;4.25;;;;;;;19.88;80.00;99642.02;1724712;83;21167;-78
2021/06/12 04:09:30;;;;;;;8.90;3.55;;;;;;;20.35;78.53;99650.48;1695900;84;21858;-77
2021/06/12 04:12:36;;;;;;;7.47;3.27;;;;;;;20.65;76.84;99652.33;1723978;83;21306;-77
2021/06/12 04:15:35;;;;;;;3.95;3.10;;;;;;;20.85;75.07;99650.89;1696685;84;21326;-78
2021/06/12 04:18:28;;;;;;;4.15;2.80;;;;;;;21.05;73.74;99655.29;1724824;83;21811;-78
2021/06/12 04:21:34;;;;;;;6.97;3.40;;;;;;;21.17;73.09;99651.82;1696852;84;21346;-78
2021/06/12 04:24:43;;;;;;;4.40;3.00;;;;;;;21.29;72.16;99645.25;1723888;83;21341;-78
2021/06/12 04:27:49;;;;;;;7.50;3.00;;;;;;;21.31;71.03;99657.81;1697084;84;21208;-78
2021/06/12 04:30:55;;;;;;;9.10;3.40;;;;;;;21.43;71.15;99654.88;1724787;83;21306;-78
2021/06/12 04:34:00;;;;;;;2.60;2.17;;;;;;;21.55;70.57;99664.44;1696829;84;21861;-78
2021/06/12 04:37:08;;;;;;;7.40;2.33;;;;;;;21.69;69.07;99661.53;1723335;83;21207;-78
2021/06/12 04:40:15;;;;;;;5.67;2.70;;;;;;;21.80;68.37;99663.84;1696906;84;21366;-78
2021/06/12 04:43:21;;;;;;;4.97;2.30;;;;;;;21.89;67.75;99662.25;1723709;83;21346;-78
2021/06/12 04:46:27;;;;;;;2.87;2.05;;;;;;;21.95;67.91;99676.48;1696820;84;21311;-79
2021/06/12 04:49:32;;;;;;;4.90;2.27;;;;;;;21.94;67.23;99670.64;1723377;83;21294;-78
2021/06/12 04:52:38;;;;;;;2.60;2.30;;;;;;;21.98;66.78;99669.00;1696344;84;21917;-77
2021/06/12 04:55:44;;;;;;;4.75;2.50;;;;;;;22.12;66.36;99674.98;1726559;79;21334;-78
2021/06/12 04:58:50;;;;;;;5.62;2.62;;;;;;;22.28;66.34;99674.52;1756108;81;21803;-77
2021/06/12 05:01:56;;;;;;;3.98;2.75;;;;;;;22.38;65.99;99673.19;1756088;81;21247;-77
2021/06/12 05:05:02;;;;;;;3.17;1.80;;;;;;;22.42;65.86;99679.34;1755943;81;21244;-78
2021/06/12 05:08:07;;;;;;;4.78;2.42;;;;;;;22.49;65.57;99676.34;1756115;81;21306;-77
2021/06/12 05:11:13;;;;;;;4.85;2.70;;;;;;;22.52;64.87;99680.52;1754570;81;21793;-77
2021/06/12 05:14:19;;;;;;;3.05;2.35;;;;;;;22.60;64.79;99679.45;1756209;81;21869;-78
2021/06/12 05:17:26;;;;;;;3.50;2.33;;;;;;;22.69;63.38;99684.80;1756727;81;21291;-77
2021/06/12 05:20:25;;;;;;;3.02;2.47;;;;;;;22.69;63.29;99680.62;1756119;81;21295;-78
2021/06/12 05:23:31;;;;;;;4.65;2.15;;;;;;;22.66;62.34;99679.76;1754816;81;21342;-78
2021/06/12 05:26:37;;;;;;;3.27;2.25;;;;;;;22.64;62.41;99675.02;1756209;81;21169;-78
2021/06/12 05:29:42;;;;;;;3.55;1.60;;;;;;;22.71;61.97;99683.95;1755396;80;21763;-77
2021/06/12 05:32:49;;;;;;;5.95;1.62;;;;;;;22.77;61.76;99675.06;1756027;81;21707;-78
2021/06/12 05:35:59;;;;;;;4.45;2.05;;;;;;;22.83;61.69;99675.95;1756279;81;21196;-78
2021/06/12 05:39:04;;;;;;;3.47;1.80;;;;;;;22.88;62.51;99674.56;1756127;81;21295;-77
2021/06/12 05:42:10;;;;;;;5.10;2.00;;;;;;;22.95;62.03;99678.80;1756189;81;21161;-77
2021/06/12 05:45:18;;;;;;;2.47;1.80;;;;;;;23.09;62.09;99679.13;1756167;81;21291;-78
2021/06/12 05:48:27;;;;;;;4.62;1.98;;;;;;;23.21;61.81;99675.55;1756200;81;21314;-78
2021/06/12 05:51:35;;;;;;;2.15;1.62;;;;;;;23.26;61.10;99674.72;1754898;81;21307;-77
2021/06/12 05:54:41;;;;;;;4.70;1.60;;;;;;;23.27;61.25;99669.41;1754770;81;21299;-77
2021/06/12 05:57:46;;;;;;;2.35;1.72;;;;;;;23.29;61.07;99671.39;1751788;81;21322;-77
2021/06/12 06:00:52;;;;;;;2.42;1.60;;;;;;;23.37;61.22;99670.83;1726286;83;21735;-78
2021/06/12 06:03:58;;;;;;;2.58;1.72;;;;;;;23.43;60.99;99674.45;1747841;82;21331;-78
2021/06/12 06:07:05;;;;;;;4.70;1.57;;;;;;;23.45;60.44;99666.66;1747724;82;21197;-77
2021/06/12 06:10:12;;;;;;;2.33;1.42;;;;;;;23.44;59.43;99672.81;1749113;82;21913;-77
2021/06/12 06:13:18;;;;;;;1.65;1.37;;;;;;;23.45;58.61;99670.86;1749002;82;21323;-77
2021/06/12 06:16:25;;;;;;;2.95;1.75;;;;;;;23.47;59.34;99671.41;1749088;82;21291;-78
2021/06/12 06:19:30;;;;;;;1.92;1.57;;;;;;;23.58;59.44;99663.91;1749305;82;21871;-78
2021/06/12 06:22:36;;;;;;;3.12;1.82;;;;;;;23.65;59.06;99668.67;1747810;82;21307;-77
2021/06/12 06:25:42;;;;;;;3.35;1.98;;;;;;;23.60;59.14;99665.28;1747753;82;21277;-78
2021/06/12 06:28:48;;;;;;;2.52;1.50;;;;;;;23.54;58.95;99669.20;1747762;80;21343;-78
2021/06/12 06:31:53;;;;;;;1.45;1.35;;;;;;;23.53;60.10;99671.71;1747896;82;21303;-77
2021/06/12 06:34:59;;;;;;;2.30;1.30;;;;;;;23.52;59.34;99670.01;1748441;82;21314;-78
2021/06/12 06:38:04;;;;;;;1.22;1.12;;;;;;;23.58;59.46;99667.53;1749226;82;21495;-77
2021/06/12 06:41:10;;;;;;;2.92;1.42;;;;;;;23.61;59.80;99673.93;1748660;82;21331;-78
2021/06/12 06:44:15;;;;;;;2.92;1.45;;;;;;;23.63;59.92;99670.33;1748629;82;21338;-77
2021/06/12 06:47:21;;;;;;;3.10;1.15;;;;;;;23.60;59.50;99671.42;1749111;82;21342;-77
2021/06/12 06:50:26;;;;;;;1.45;1.07;;;;;;;23.59;59.03;99670.59;1749237;82;21297;-77
2021/06/12 06:53:34;;;;;;;2.20;1.12;;;;;;;23.63;57.04;99678.70;1749212;82;21316;-78
2021/06/12 06:56:40;;;;;;;3.42;1.15;;;;;;;23.60;57.33;99678.41;1748546;82;21342;-77
2021/06/12 06:59:46;;;;;;;4.25;1.30;;;;;;;23.65;57.42;99680.67;1737374;81;21338;-78
2021/06/12 07:02:52;;;;;;;1.98;1.20;;;;;;;23.73;56.29;99680.69;1736096;82;21236;-77
2021/06/12 07:06:00;;;;;;;2.08;1.27;;;;;;;23.81;56.36;99676.52;1736064;82;21315;-77
2021/06/12 07:09:06;;;;;;;2.08;1.40;;;;;;;23.87;57.01;99678.19;1736047;82;21354;-77
2021/06/12 07:12:11;;;;;;;1.55;1.05;;;;;;;23.94;56.17;99680.13;1735242;82;21208;-78
2021/06/12 07:15:19;;;;;;;2.02;1.00;;;;;;;23.95;55.91;99678.47;1734972;82;21303;-77
2021/06/12 07:18:25;;;;;;;1.07;0.98;;;;;;;24.07;56.95;99679.56;1736030;82;21169;-77
2021/06/12 07:21:30;;;;;;;5.20;1.00;;;;;;;24.30;56.59;99681.49;1736119;82;21711;-77
2021/06/12 07:24:35;;;;;;;1.10;1.00;;;;;;;24.50;55.15;99678.68;1735702;82;21884;-77
2021/06/12 07:27:41;;;;;;;1.30;0.98;;;;;;;24.53;55.25;99686.51;1735076;82;21322;-78
2021/06/12 07:30:46;;;;;;;1.55;1.10;;;;;;;24.49;54.59;99689.59;1736007;82;21173;-78
2021/06/12 07:33:52;;;;;;;1.92;1.15;;;;;;;24.50;54.27;99688.46;1735897;82;21192;-77
2021/06/12 07:36:57;;;;;;;1.60;1.00;;;;;;;24.60;54.08;99681.44;1735890;82;21299;-77
2021/06/12 07:40:02;;;;;;;1.40;1.00;;;;;;;24.68;54.50;99682.27;1736072;82;21359;-77
2021/06/12 07:43:08;;;;;;;1.15;0.80;;;;;;;24.79;53.64;99689.22;1735003;82;21644;-78
2021/06/12 07:46:14;;;;;;;2.37;0.82;;;;;;;24.89;52.81;99689.17;1734660;82;21913;-78
2021/06/12 07:49:20;;;;;;;1.42;1.10;;;;;;;25.05;52.09;99688.56;1734396;82;21295;-77
2021/06/12 07:52:25;;;;;;;0.70;0.70;;;;;;;25.19;52.41;99686.28;1735978;82;22755;-77
2021/06/12 07:55:31;;;;;;;1.30;0.70;;;;;;;25.31;51.50;99690.69;1735336;82;21350;-77
2021/06/12 07:58:37;;;;;;;1.20;0.70;;;;;;;25.41;49.72;99681.69;1735319;82;21240;-78
2021/06/12 08:01:42;;;;;;;0.88;0.82;;;;;;;25.45;49.83;99685.58;1704365;84;21322;-77
2021/06/12 08:04:47;;;;;;;1.00;0.80;;;;;;;25.45;51.09;99685.58;1705909;84;21357;-78
2021/06/12 08:07:52;;;;;;;1.52;0.88;;;;;;;25.54;49.16;99694.17;1704109;84;21394;-77
2021/06/12 08:10:58;;;;;;;1.17;1.00;;;;;;;25.66;50.96;99687.66;1704174;84;21712;-78
2021/06/12 08:14:04;;;;;;;1.27;0.98;;;;;;;25.77;50.56;99684.81;1703629;84;21380;-78
2021/06/12 08:17:10;;;;;;;1.90;0.93;;;;;;;25.84;50.55;99694.57;1705650;84;21398;-77
2021/06/12 08:20:16;;;;;;;1.75;1.12;;;;;;;25.97;50.24;99691.64;1704923;84;21765;-78
2021/06/12 08:23:22;;;;;;;1.47;0.90;;;;;;;26.04;49.91;99682.92;1703947;84;21325;-78
2021/06/12 08:26:28;;;;;;;1.52;0.88;;;;;;;26.12;48.64;99687.33;1704227;84;21385;-78
2021/06/12 08:29:33;;;;;;;1.82;0.90;;;;;;;26.20;48.65;99683.86;1703320;83;21937;-78
2021/06/12 08:32:39;;;;;;;2.45;0.70;;;;;;;26.25;47.83;99681.58;1704121;84;21219;-78
2021/06/12 08:35:46;;;;;;;3.40;0.90;;;;;;;26.25;47.78;99683.84;1704103;84;21234;-77
2021/06/12 08:38:55;;;;;;;1.62;0.90;;;;;;;26.18;47.48;99684.73;1706606;84;21689;-78
2021/06/12 08:42:00;;;;;;;1.20;0.85;;;;;;;26.06;48.13;99681.48;1705657;84;21897;-77
2021/06/12 08:45:06;;;;;;;1.10;0.82;;;;;;;25.79;48.52;99686.77;1706076;84;21326;-77
2021/06/12 08:48:12;;;;;;;3.52;0.80;;;;;;;25.51;48.94;99680.78;1706176;84;21317;-78
2021/06/12 08:51:18;;;;;;;1.57;0.82;;;;;;;25.42;48.49;99685.31;1706027;84;21330;-78
2021/06/12 08:54:27;;;;;;;2.58;0.90;;;;;;;25.49;48.12;99676.84;1706191;84;21317;-77
2021/06/12 08:57:32;;;;;;;2.08;1.10;;;;;;;25.62;49.14;99681.53;1706704;84;21326;-77
2021/06/12 09:00:38;;;;;;;1.77;1.02;;;;;;;25.64;48.09;99680.13;1712559;82;21327;-77
2021/06/12 09:03:51;;;;;;;1.57;0.88;;;;;;;25.59;49.22;99676.51;1732639;83;21364;-77
2021/06/12 09:06:56;;;;;;;3.30;1.60;;;;;;;25.56;49.98;99677.11;1731176;83;21300;-77
2021/06/12 09:10:05;;;;;;;1.20;0.80;;;;;;;25.51;48.81;99675.75;1731339;83;21205;-77
2021/06/12 09:13:11;;;;;;;1.22;0.90;;;;;;;25.47;49.48;99672.68;1730967;81;21202;-77
2021/06/12 09:16:39;;;;;;;1.75;1.20;;;;;;;25.37;50.89;99676.95;1731350;83;21367;-77
2021/06/12 09:19:48;;;;;;;1.05;0.93;;;;;;;25.38;50.76;99672.45;1732653;83;21193;-78
2021/06/12 09:22:55;;;;;;;1.55;1.10;;;;;;;25.52;50.94;99664.81;1732743;83;21327;-78
2021/06/12 09:26:00;;;;;;;1.20;1.00;;;;;;;25.73;49.99;99667.72;1710116;83;21348;-78
2021/06/12 09:29:06;;;;;;;0.98;0.88;;;;;;;25.94;48.98;99666.47;1732043;81;21217;-78
2021/06/12 09:32:29;;;;;;;1.20;1.10;;;;;;;26.00;47.89;99660.25;1732619;83;21218;-77
2021/06/12 09:35:48;;;;;;;2.05;0.82;;;;;;;25.90;48.71;99655.57;1732712;83;22324;-77
2021/06/12 09:38:54;;;;;;;1.98;0.98;;;;;;;25.73;48.34;99655.95;1732686;83;21309;-78
2021/06/12 09:42:03;;;;;;;2.20;0.98;;;;;;;25.61;47.80;99652.70;1732655;83;21914;-77
2021/06/12 09:45:14;;;;;;;1.30;1.05;;;;;;;25.70;49.17;99650.12;1731405;83;21352;-77
2021/06/12 09:48:25;;;;;;;1.22;0.95;;;;;;;25.90;50.35;99641.56;1732810;83;21191;-78
2021/06/12 09:51:30;;;;;;;1.55;0.90;;;;;;;26.11;48.63;99643.63;1732686;83;21317;-78
2021/06/12 09:54:59;;;;;;;2.08;0.90;;;;;;;26.20;49.62;99646.03;1732719;83;21201;-78
2021/06/12 09:58:06;;;;;;;2.17;1.02;;;;;;;26.30;49.13;99652.13;1731687;83;21871;-78
2021/06/12 10:01:15;;;;;;;0.93;0.90;;;;;;;26.50;49.47;99642.11;1732701;81;21328;-77
2021/06/12 10:04:21;;;;;;;0.97;0.80;;;;;;;26.71;48.36;99645.50;1732987;83;21914;-78
2021/06/12 10:07:26;;;;;;;3.52;0.80;;;;;;;26.71;47.58;99645.50;1731996;83;21824;-77
2021/06/12 10:10:31;;;;;;;2.08;1.30;;;;;;;26.71;48.80;99652.51;1732574;83;21324;-78
2021/06/12 10:13:37;;;;;;;0.70;0.70;;;;;;;26.85;48.54;99648.41;1732640;83;21752;-78
2021/06/12 10:16:49;;;;;;;1.37;0.85;;;;;;;26.93;48.41;99643.55;1731207;83;21233;-78
2021/06/12 10:19:55;;;;;;;1.30;1.07;;;;;;;26.97;48.00;99643.78;1717278;83;21281;-78
2021/06/12 10:23:00;;;;;;;2.00;0.90;;;;;;;27.00;47.24;99641.77;1703848;84;21296;-78
2021/06/12 10:26:05;;;;;;;3.72;0.93;;;;;;;26.92;47.38;99643.86;1702949;84;21347;-78
2021/06/12 10:29:10;;;;;;;5.72;0.88;;;;;;;26.80;47.49;99640.06;1702082;84;21366;-78
2021/06/12 10:32:15;;;;;;;0.80;0.80;;;;;;;26.73;48.20;99636.23;1703641;84;21336;-78
2021/06/12 10:35:33;;;;;;;1.95;0.95;;;;;;;26.73;47.47;99636.80;1703185;84;21855;-78
2021/06/12 10:38:38;;;;;;;1.92;0.88;;;;;;;26.55;47.95;99631.41;1703909;84;21185;-78
2021/06/12 10:41:42;;;;;;;5.55;0.90;;;;;;;26.35;49.14;99628.78;1703012;84;21344;-78
2021/06/12 10:44:55;;;;;;;1.17;1.02;;;;;;;26.39;49.44;99625.66;1703169;84;21248;-78
2021/06/12 10:48:01;;;;;;;2.17;0.95;;;;;;;26.50;47.93;99624.45;1703423;84;21265;-79
2021/06/12 10:51:08;;;;;;;1.92;1.10;;;;;;;26.55;47.28;99630.00;1702965;84;21865;-78
2021/06/12 10:54:26;;;;;;;2.80;1.17;;;;;;;26.58;48.39;99622.95;1702054;84;21315;-78
2021/06/12 10:57:31;;;;;;;2.05;0.90;;;;;;;26.41;49.05;99629.84;1703081;84;21328;-78
2021/06/12 11:00:37;;;;;;;4.22;0.80;;;;;;;26.20;49.63;99621.38;1702807;84;21406;-78
2021/06/12 11:07:46;;;;;;;1.22;0.82;;;;;;;25.80;50.51;99619.82;1701850;84;21260;-78
2021/06/12 11:10:51;;;;;;;1.60;1.20;;;;;;;25.61;51.73;99630.30;1702000;84;21842;-78
2021/06/12 11:14:18;;;;;;;1.20;0.90;;;;;;;25.42;52.00;99633.53;1703295;84;21218;-79
2021/06/12 11:17:24;;;;;;;2.45;1.20;;;;;;;25.20;53.12;99625.55;1703681;83;21763;-78
2021/06/12 11:20:31;;;;;;;1.52;1.00;;;;;;;25.06;55.12;99623.08;1703215;84;21863;-78
2021/06/12 11:23:57;;;;;;;0.88;0.88;;;;;;;25.00;54.62;99622.28;1703574;84;21323;-78
2021/06/12 11:27:06;;;;;;;1.40;1.30;;;;;;;25.06;54.97;99622.52;1703469;84;21253;-78
2021/06/12 11:30:30;;;;;;;1.10;1.00;;;;;;;25.19;55.03;99621.08;1702181;84;21328;-83
2021/06/12 11:33:34;;;;;;;0.95;0.82;;;;;;;25.33;54.17;99622.67;1717232;81;21295;-79
2021/06/12 11:36:41;;;;;;;2.05;0.90;;;;;;;25.52;52.56;99615.25;1730680;81;21289;-77
2021/06/12 11:40:11;;;;;;;1.22;0.90;;;;;;;25.76;51.90;99611.73;1733939;82;21378;-79
2021/06/12 11:43:18;;;;;;;1.05;0.80;;;;;;;26.00;51.58;99607.84;1729725;81;21974;-77
2021/06/12 11:46:45;;;;;;;1.02;0.80;;;;;;;26.21;49.00;99600.08;1726940;81;21302;-78
2021/06/12 11:49:58;;;;;;;1.67;0.80;;;;;;;26.33;48.72;99602.45;1724428;83;21898;-78
2021/06/12 11:53:03;;;;;;;2.75;1.40;;;;;;;26.43;48.73;99596.75;1724424;83;21254;-78
2021/06/12 11:56:08;;;;;;;2.45;1.22;;;;;;;26.52;50.06;99603.95;1730562;81;21667;-77
2021/06/12 11:59:15;;;;;;;1.40;0.90;;;;;;;26.55;50.12;99599.16;1727962;81;21317;-78
2021/06/12 12:02:20;;;;;;;1.55;0.93;;;;;;;26.57;49.82;99601.65;1717424;82;21906;-78
2021/06/12 12:05:26;;;;;;;1.30;1.00;;;;;;;26.63;48.83;99594.30;1703574;83;21225;-78
2021/06/12 12:08:30;;;;;;;1.90;0.98;;;;;;;26.69;48.67;99576.25;1706964;84;21399;-78
2021/06/12 12:11:35;;;;;;;2.35;1.00;;;;;;;26.76;48.56;99586.52;1706438;84;21764;-77
2021/06/12 12:14:42;;;;;;;3.52;1.25;;;;;;;26.80;48.95;99588.73;1706637;84;21351;-78
2021/06/12 12:17:48;;;;;;;1.10;0.82;;;;;;;26.76;48.71;99587.92;1705521;84;21349;-77
2021/06/12 12:21:00;;;;;;;0.80;0.80;;;;;;;26.66;48.81;99583.03;1706457;84;21323;-78
2021/06/12 12:24:02;;;;;;;1.80;0.90;;;;;;;26.65;48.67;99583.59;1706519;84;21320;-78
2021/06/12 12:27:10;;;;;;;0.88;0.88;;;;;;;26.59;48.41;99586.20;1706468;84;21315;-77
2021/06/12 12:30:16;;;;;;;1.15;0.80;;;;;;;26.46;48.11;99577.11;1705714;84;21350;-78
2021/06/12 12:33:26;;;;;;;2.47;0.82;;;;;;;26.42;49.20;99574.61;1676447;85;21349;-77
2021/06/12 12:36:33;;;;;;;2.65;1.12;;;;;;;26.49;46.05;99575.13;1676426;84;21227;-78
2021/06/12 12:39:51;;;;;;;0.95;0.60;;;;;;;26.53;46.42;99571.96;1677124;85;22573;-77
2021/06/12 12:43:13;;;;;;;0.98;0.62;;;;;;;26.58;47.34;99577.50;1692485;84;21172;-78
2021/06/12 12:46:18;;;;;;;3.98;0.80;;;;;;;26.51;46.70;99564.43;1719650;83;21306;-77
2021/06/12 12:49:28;;;;;;;7.03;1.62;;;;;;;26.40;46.48;99565.67;1695695;84;21907;-77
2021/06/12 12:52:35;;;;;;;;;;;;;;;26.24;47.63;99561.63;1699084;84;21858;-78
2021/06/12 12:55:40;;;;;;;1.82;1.10;;;;;;;26.04;49.56;99559.06;1697194;84;20193;-78
2021/06/12 12:58:46;;;;;;;1.07;0.90;;;;;;;25.74;48.78;99563.82;1696376;84;21462;-78
2021/06/12 13:01:59;;;;;;;5.53;1.90;;;;;;;25.48;50.38;99561.80;1682850;84;21299;-77
2021/06/12 13:05:07;;;;;;;3.83;1.12;;;;;;;25.32;52.81;99561.66;1703359;83;21328;-78
2021/06/12 13:08:13;;;;;;;1.50;1.00;;;;;;;25.27;52.31;99562.27;1742518;82;21374;-77
2021/06/12 13:11:18;;;;;;;2.42;1.40;;;;;;;25.23;50.74;99559.22;1732170;83;21280;-77
2021/06/12 13:14:38;;;;;;;1.10;0.93;;;;;;;25.19;51.07;99553.92;1736360;82;21323;-77
2021/06/12 13:17:45;;;;;;;1.30;1.00;;;;;;;25.14;52.91;99554.80;1734350;81;21917;-77
2021/06/12 13:20:51;;;;;;;1.12;1.02;;;;;;;25.08;53.03;99562.96;1734643;82;21344;-77
2021/06/12 13:24:08;;;;;;;4.25;1.10;;;;;;;25.05;52.33;99566.30;1734459;82;21188;-77
2021/06/12 13:27:14;;;;;;;5.85;1.10;;;;;;;25.05;51.22;99564.06;1735827;82;21180;-78
2021/06/12 13:30:33;;;;;;;1.45;1.20;;;;;;;25.05;52.04;99561.27;1734628;82;21346;-77
2021/06/12 13:33:40;;;;;;;3.60;1.00;;;;;;;25.13;50.97;99548.94;1735071;82;21385;-77
2021/06/12 13:36:47;;;;;;;1.35;1.00;;;;;;;25.26;51.74;99556.38;1735925;82;21298;-78
2021/06/12 13:40:04;;;;;;;3.17;1.20;;;;;;;25.30;51.21;99554.67;1735566;82;21299;-77
2021/06/12 13:43:23;;;;;;;1.47;1.12;;;;;;;25.27;50.72;99555.28;1735721;81;21168;-77
2021/06/12 13:46:33;;;;;;;2.17;1.20;;;;;;;25.21;49.88;99545.49;1735943;82;21299;-78
2021/06/12 13:50:37;;;;;;;4.60;0.95;;;;;;;25.08;50.89;99550.38;1736117;82;21247;-77
2021/06/12 13:53:46;;;;;;;1.95;1.22;;;;;;;25.04;51.80;99545.61;1734839;82;21319;-77
2021/06/12 13:56:50;;;;;;;2.00;1.05;;;;;;;25.02;48.65;99540.29;1735878;82;21858;-77
2021/06/12 14:00:03;;;;;;;4.15;1.25;;;;;;;25.06;47.86;99532.99;1735791;82;21327;-77
2021/06/12 14:03:07;;;;;;;2.15;0.90;;;;;;;25.13;47.99;99536.34;1742671;81;21350;-77
2021/06/12 14:06:13;;;;;;;2.65;1.20;;;;;;;25.18;49.59;99536.30;1735466;82;21231;-77
2021/06/12 14:09:18;;;;;;;3.12;1.20;;;;;;;25.19;49.87;99538.53;1736014;82;21311;-77
2021/06/12 14:12:25;;;;;;;3.12;0.95;;;;;;;25.08;50.12;99530.78;1735137;82;21181;-77
2021/06/12 14:15:31;;;;;;;4.17;1.32;;;;;;;24.90;50.03;99542.06;1733571;82;21310;-77
2021/06/12 14:18:37;;;;;;;4.80;1.37;;;;;;;24.80;50.99;99542.13;1734386;82;21409;-78
2021/06/12 14:21:43;;;;;;;1.82;1.12;;;;;;;24.72;52.03;99538.53;1733714;82;21208;-77
2021/06/12 14:24:49;;;;;;;5.37;1.30;;;;;;;24.69;51.56;99539.09;1735415;82;21335;-77
2021/06/12 14:27:55;;;;;;;3.55;1.07;;;;;;;24.68;50.60;99541.06;1735938;82;21296;-77
2021/06/12 14:31:01;;;;;;;1.98;0.90;;;;;;;24.70;51.81;99536.56;1735376;82;21375;-77
2021/06/12 14:34:07;;;;;;;3.50;1.07;;;;;;;24.75;51.96;99547.75;1735836;82;21875;-77
2021/06/12 14:37:13;;;;;;;6.65;1.20;;;;;;;24.79;50.83;99553.58;1736047;82;21306;-77
2021/06/12 14:40:19;;;;;;;2.40;1.05;;;;;;;24.79;50.12;99543.80;1736032;82;21310;-77
2021/06/12 14:43:25;;;;;;;2.42;0.95;;;;;;;24.78;50.70;99551.91;1736086;82;21322;-77
2021/06/12 14:46:31;;;;;;;1.20;1.02;;;;;;;24.78;51.68;99551.91;1735924;82;21781;-77